Time;durP1;ratioP1;P1;durP2;ratioP2;P2;SDS_P1;SDS_P2;PMS_P1;PMS_P2;Temp;Humidity;BMP_temperature;BMP_pressure;BME280_temperature;BME280_humidity;BME280_pressure;Samples;Min_cycle;Max_cycle;Signal;HPM_P1;HPM_P2
2023/09/17 00:02:14;;;;;;;0.70;0.70;;;23.20;85.80;;;;;;6299997;22;20165;-82
2023/09/17 00:04:43;;;;;;;0.30;0.30;;;23.20;85.70;;;;;;6302738;22;20252;-81
2023/09/17 00:07:11;;;;;;;0.88;0.88;;;23.20;85.70;;;;;;6304770;22;20607;-82
2023/09/17 00:09:41;;;;;;;2.72;0.95;;;23.20;85.70;;;;;;6303347;22;20197;-80
2023/09/17 00:12:10;;;;;;;0.73;0.70;;;23.20;85.70;;;;;;6303981;22;20674;-81
2023/09/17 00:14:38;;;;;;;0.52;0.52;;;23.20;85.60;;;;;;6306099;22;20239;-82
2023/09/17 00:17:07;;;;;;;0.55;0.55;;;23.20;85.50;;;;;;6303250;22;20169;-83
2023/09/17 00:19:35;;;;;;;0.45;0.45;;;23.20;85.70;;;;;;6305543;22;20172;-83
2023/09/17 00:22:07;;;;;;;0.50;0.50;;;23.20;85.60;;;;;;6304389;22;20230;-82
2023/09/17 00:24:36;;;;;;;1.20;1.10;;;23.10;85.60;;;;;;6305610;22;20161;-84
2023/09/17 00:27:06;;;;;;;1.27;1.17;;;23.10;85.50;;;;;;6306843;22;20256;-83
2023/09/17 00:29:34;;;;;;;1.60;0.70;;;23.10;85.70;;;;;;6302920;22;20188;-82
2023/09/17 00:32:05;;;;;;;2.08;1.20;;;23.10;86.90;;;;;;6303973;22;20268;-83
2023/09/17 00:34:34;;;;;;;0.85;0.70;;;23.10;86.10;;;;;;6311232;22;20237;-81
2023/09/17 00:37:03;;;;;;;1.02;0.93;;;23.00;86.10;;;;;;6324610;22;20173;-82
2023/09/17 00:39:31;;;;;;;4.80;1.33;;;23.00;86.40;;;;;;6323883;22;20293;-83
2023/09/17 00:42:00;;;;;;;1.70;1.13;;;23.00;86.60;;;;;;6326572;22;20157;-83
2023/09/17 00:44:29;;;;;;;1.75;1.05;;;23.00;86.40;;;;;;6325587;22;20169;-80
2023/09/17 00:47:00;;;;;;;1.20;1.10;;;23.00;86.30;;;;;;6317062;22;20168;-83
2023/09/17 00:49:29;;;;;;;0.45;0.45;;;23.00;86.20;;;;;;6305954;22;20189;-81
2023/09/17 00:51:58;;;;;;;0.77;0.68;;;23.00;86.30;;;;;;6306498;22;20167;-84
2023/09/17 00:54:29;;;;;;;2.35;1.65;;;23.00;86.30;;;;;;6307459;22;20169;-81
2023/09/17 00:56:58;;;;;;;2.65;1.00;;;22.90;86.40;;;;;;6280914;22;20587;-83
2023/09/17 00:59:27;;;;;;;0.57;0.50;;;22.90;86.20;;;;;;6305708;22;20397;-84
2023/09/17 01:01:57;;;;;;;1.08;0.70;;;22.90;86.10;;;;;;6305900;22;20165;-83
2023/09/17 01:04:28;;;;;;;2.80;1.55;;;22.90;86.00;;;;;;6304623;22;20193;-83
2023/09/17 01:07:00;;;;;;;2.33;0.60;;;22.90;85.90;;;;;;6303177;22;20252;-83
2023/09/17 01:09:29;;;;;;;0.80;0.80;;;22.90;85.80;;;;;;6303670;22;20650;-82
2023/09/17 01:11:58;;;;;;;1.25;1.15;;;22.90;85.90;;;;;;6304378;22;20189;-82
2023/09/17 01:14:27;;;;;;;0.93;0.45;;;22.90;85.90;;;;;;6303622;22;20176;-81
2023/09/17 01:16:58;;;;;;;0.40;0.40;;;22.90;85.80;;;;;;6304145;22;20165;-83
2023/09/17 01:19:29;;;;;;;1.20;0.63;;;22.90;85.80;;;;;;6304812;22;20169;-82
2023/09/17 01:22:06;;;;;;;0.60;0.50;;;22.90;85.90;;;;;;6299994;22;20184;-82
2023/09/17 01:24:45;;;;;;;1.15;0.68;;;22.90;85.90;;;;;;6301935;22;20149;-84
2023/09/17 01:27:18;;;;;;;1.63;0.98;;;22.90;85.80;;;;;;6305715;22;20167;-81
2023/09/17 01:29:47;;;;;;;0.68;0.63;;;22.90;85.80;;;;;;6303843;22;20191;-83
2023/09/17 01:32:17;;;;;;;1.73;0.80;;;22.90;85.90;;;;;;6305165;22;20256;-82
2023/09/17 01:34:49;;;;;;;1.25;0.98;;;22.90;85.90;;;;;;6276163;22;20165;-82
2023/09/17 01:37:29;;;;;;;0.88;0.50;;;22.90;85.90;;;;;;6304890;22;20158;-83
2023/09/17 01:40:01;;;;;;;1.13;0.80;;;22.90;85.80;;;;;;6304787;22;20189;-83
2023/09/17 01:42:32;;;;;;;0.73;0.63;;;22.90;85.80;;;;;;6304329;22;20169;-82
2023/09/17 01:45:02;;;;;;;0.50;0.40;;;22.90;85.80;;;;;;6304334;22;20181;-81
2023/09/17 01:47:32;;;;;;;5.05;1.40;;;22.90;85.90;;;;;;6304709;22;20206;-81
2023/09/17 01:50:02;;;;;;;1.60;0.95;;;22.90;86.40;;;;;;6301825;22;20597;-83
2023/09/17 01:52:32;;;;;;;0.60;0.60;;;22.90;86.40;;;;;;6303505;22;20207;-83
2023/09/17 01:55:03;;;;;;;7.10;1.45;;;22.90;86.20;;;;;;6304204;22;20710;-82
2023/09/17 01:57:35;;;;;;;0.70;0.70;;;22.90;86.10;;;;;;6305650;22;20219;-83
2023/09/17 02:00:14;;;;;;;0.47;0.47;;;22.90;86.10;;;;;;6303981;22;20165;-82
2023/09/17 02:02:46;;;;;;;2.40;1.27;;;22.90;86.00;;;;;;6304667;22;20237;-81
2023/09/17 02:05:16;;;;;;;0.40;0.40;;;22.90;86.30;;;;;;6302769;22;20166;-82
2023/09/17 02:07:45;;;;;;;1.02;1.00;;;22.90;86.10;;;;;;6303504;22;20709;-83
2023/09/17 02:10:13;;;;;;;0.52;0.52;;;22.90;86.40;;;;;;6304135;22;20196;-83
2023/09/17 02:12:43;;;;;;;0.30;0.30;;;22.90;86.30;;;;;;6303498;22;20622;-83
2023/09/17 02:15:12;;;;;;;1.23;0.93;;;22.80;86.20;;;;;;6304656;22;20165;-83
2023/09/17 02:17:42;;;;;;;1.20;0.77;;;22.80;86.30;;;;;;6303530;22;20630;-82
2023/09/17 02:20:12;;;;;;;0.77;0.77;;;22.80;86.30;;;;;;6303706;22;20173;-84
2023/09/17 02:22:41;;;;;;;0.75;0.75;;;22.80;86.40;;;;;;6303523;22;20171;-84
2023/09/17 02:25:11;;;;;;;1.08;0.68;;;22.80;86.30;;;;;;6304725;22;20176;-84
2023/09/17 02:27:40;;;;;;;0.70;0.50;;;22.80;86.20;;;;;;6305222;22;20606;-82
2023/09/17 02:30:10;;;;;;;0.60;0.60;;;22.70;86.30;;;;;;6302410;22;20219;-85
2023/09/17 02:32:39;;;;;;;1.30;0.90;;;22.80;86.50;;;;;;6303660;22;20253;-83
2023/09/17 02:35:09;;;;;;;1.35;0.80;;;22.80;86.70;;;;;;6302646;22;20244;-85
2023/09/17 02:37:37;;;;;;;0.55;0.55;;;22.70;87.10;;;;;;6304420;22;20520;-84
2023/09/17 02:40:09;;;;;;;1.38;1.05;;;22.70;86.80;;;;;;6303405;22;20207;-82
2023/09/17 02:42:38;;;;;;;1.38;1.17;;;22.70;86.60;;;;;;6303470;22;20557;-85
2023/09/17 02:45:09;;;;;;;1.55;0.82;;;22.70;86.60;;;;;;6305526;22;20510;-84
2023/09/17 02:47:40;;;;;;;1.25;0.75;;;22.70;86.60;;;;;;6300851;22;20244;-83
2023/09/17 02:50:10;;;;;;;1.15;0.85;;;22.70;86.80;;;;;;6301970;22;20185;-84
2023/09/17 02:52:42;;;;;;;0.40;0.40;;;22.70;86.60;;;;;;6304472;22;20191;-84
2023/09/17 02:55:11;;;;;;;1.52;1.17;;;22.70;86.90;;;;;;6304419;22;20157;-84
2023/09/17 02:57:40;;;;;;;1.27;1.17;;;22.70;86.90;;;;;;6303377;22;20176;-84
2023/09/17 03:00:13;;;;;;;1.30;1.20;;;22.60;86.90;;;;;;6302760;22;20165;-82
2023/09/17 03:02:43;;;;;;;2.88;1.10;;;22.60;87.30;;;;;;6304017;22;20168;-84
2023/09/17 03:05:12;;;;;;;0.93;0.60;;;22.50;87.10;;;;;;6301379;22;20610;-82
2023/09/17 03:07:41;;;;;;;0.60;0.60;;;22.50;87.20;;;;;;6301816;22;20256;-84
2023/09/17 03:10:11;;;;;;;0.90;0.50;;;22.50;87.10;;;;;;6276455;22;20189;-83
2023/09/17 03:12:41;;;;;;;1.48;0.60;;;22.50;87.20;;;;;;6277910;22;20168;-84
2023/09/17 03:15:11;;;;;;;1.42;0.98;;;22.50;87.20;;;;;;6301563;22;20173;-82
2023/09/17 03:17:41;;;;;;;0.45;0.43;;;22.50;87.10;;;;;;6304425;22;20175;-83
2023/09/17 03:20:17;;;;;;;0.80;0.70;;;22.50;87.00;;;;;;6303403;22;20240;-82
2023/09/17 03:22:45;;;;;;;3.03;0.70;;;22.50;86.90;;;;;;6304736;22;20155;-84
2023/09/17 03:25:15;;;;;;;2.17;0.95;;;22.40;87.20;;;;;;6303556;22;20179;-81
2023/09/17 03:27:44;;;;;;;2.03;1.45;;;22.40;87.20;;;;;;6301898;22;20818;-83
2023/09/17 03:30:14;;;;;;;2.08;1.35;;;22.40;87.30;;;;;;6302139;22;20195;-84
2023/09/17 03:32:43;;;;;;;1.63;1.42;;;22.30;87.10;;;;;;6303551;22;20157;-83
2023/09/17 03:35:15;;;;;;;2.20;2.00;;;22.30;87.70;;;;;;6303679;22;20160;-82
2023/09/17 03:37:43;;;;;;;1.40;0.95;;;22.30;87.60;;;;;;6304184;22;20165;-82
2023/09/17 03:40:15;;;;;;;0.57;0.57;;;22.30;87.70;;;;;;6303367;22;20242;-81
2023/09/17 03:42:47;;;;;;;1.17;0.85;;;22.30;87.80;;;;;;6303036;22;20470;-83
2023/09/17 03:45:17;;;;;;;0.50;0.50;;;22.20;87.80;;;;;;6301980;22;20164;-83
2023/09/17 03:47:47;;;;;;;1.08;0.85;;;22.20;87.70;;;;;;6276377;22;20227;-83
2023/09/17 03:50:17;;;;;;;1.02;0.95;;;22.20;87.70;;;;;;6305503;22;20687;-83
2023/09/17 03:52:52;;;;;;;0.70;0.70;;;22.20;87.70;;;;;;6304035;22;20558;-83
2023/09/17 03:55:21;;;;;;;0.88;0.50;;;22.20;87.70;;;;;;6302747;22;20599;-82
2023/09/17 03:57:50;;;;;;;0.68;0.68;;;22.20;87.70;;;;;;6306075;22;20194;-84
2023/09/17 04:00:21;;;;;;;0.80;0.80;;;22.20;87.70;;;;;;6303210;22;20168;-82
2023/09/17 04:02:52;;;;;;;0.65;0.50;;;22.20;87.70;;;;;;6305025;22;20158;-82
2023/09/17 04:05:21;;;;;;;1.75;1.30;;;22.20;88.00;;;;;;6278488;22;20240;-83
2023/09/17 04:07:50;;;;;;;1.35;0.75;;;22.10;87.90;;;;;;6305079;22;20481;-83
2023/09/17 04:10:19;;;;;;;1.85;1.00;;;22.20;88.00;;;;;;6304809;22;20185;-84
2023/09/17 04:12:48;;;;;;;0.47;0.47;;;22.10;88.00;;;;;;6306586;22;20328;-84
2023/09/17 04:15:20;;;;;;;0.80;0.80;;;22.10;88.10;;;;;;6304924;22;20173;-85
2023/09/17 04:17:50;;;;;;;0.73;0.73;;;22.10;88.00;;;;;;6305209;22;20263;-85
2023/09/17 04:20:20;;;;;;;2.65;1.77;;;22.10;88.30;;;;;;6304547;22;20161;-84
2023/09/17 04:22:50;;;;;;;1.42;1.33;;;22.10;88.80;;;;;;6305257;22;20626;-85
2023/09/17 04:25:20;;;;;;;1.30;0.88;;;22.10;88.40;;;;;;6305274;22;20164;-85
2023/09/17 04:27:51;;;;;;;0.30;0.30;;;22.10;88.40;;;;;;6305263;22;20160;-83
2023/09/17 04:30:38;;;;;;;0.85;0.68;;;22.10;88.40;;;;;;6280346;22;20204;-84
2023/09/17 04:33:06;;;;;;;1.45;1.20;;;22.10;88.70;;;;;;6304605;22;20163;-83
2023/09/17 04:35:35;;;;;;;1.55;1.05;;;22.10;89.10;;;;;;6302085;22;20523;-82
2023/09/17 04:38:04;;;;;;;0.70;0.70;;;22.10;89.40;;;;;;6303828;22;20169;-84
2023/09/17 04:40:33;;;;;;;0.80;0.80;;;22.00;89.50;;;;;;6303068;22;20200;-84
2023/09/17 04:43:04;;;;;;;0.45;0.43;;;22.00;89.90;;;;;;6305239;22;20220;-82
2023/09/17 04:45:34;;;;;;;1.10;0.90;;;22.00;90.00;;;;;;6304880;22;20161;-81
2023/09/17 04:48:06;;;;;;;0.98;0.82;;;22.00;89.90;;;;;;6301566;22;20168;-81
2023/09/17 04:50:35;;;;;;;1.77;1.25;;;22.00;89.90;;;;;;6303181;22;20531;-80
2023/09/17 04:53:04;;;;;;;1.77;1.52;;;22.00;90.00;;;;;;6303241;22;20294;-83
2023/09/17 04:55:33;;;;;;;4.65;1.33;;;22.00;90.10;;;;;;6303864;22;20165;-82
2023/09/17 04:58:02;;;;;;;1.05;0.73;;;22.00;90.00;;;;;;6303372;22;21026;-82
2023/09/17 05:00:30;;;;;;;0.60;0.50;;;22.00;90.00;;;;;;6303874;22;20467;-82
2023/09/17 05:02:59;;;;;;;1.85;1.58;;;22.00;90.00;;;;;;6301836;22;20161;-84
2023/09/17 05:05:29;;;;;;;0.80;0.77;;;22.00;89.90;;;;;;6303485;22;20243;-82
2023/09/17 05:07:58;;;;;;;2.58;1.33;;;22.00;89.90;;;;;;6303830;22;20161;-82
2023/09/17 05:10:27;;;;;;;0.68;0.55;;;22.10;90.00;;;;;;6304594;22;20165;-83
2023/09/17 05:12:56;;;;;;;2.15;1.65;;;22.10;89.90;;;;;;6302551;22;20542;-82
2023/09/17 05:15:25;;;;;;;2.60;1.02;;;22.10;89.90;;;;;;6304398;22;20215;-82
2023/09/17 05:17:53;;;;;;;1.98;1.23;;;22.10;89.90;;;;;;6302437;22;20686;-82
2023/09/17 05:20:23;;;;;;;2.33;0.82;;;22.10;89.70;;;;;;6305270;22;20509;-82
2023/09/17 05:22:53;;;;;;;1.23;0.82;;;22.10;89.60;;;;;;6302290;22;20180;-83
2023/09/17 05:25:22;;;;;;;1.38;1.13;;;22.10;89.40;;;;;;6304534;22;20192;-82
2023/09/17 05:27:51;;;;;;;2.35;1.08;;;22.20;89.30;;;;;;6303698;22;20672;-83
2023/09/17 05:30:19;;;;;;;1.02;0.95;;;22.20;89.20;;;;;;6302555;22;20192;-81
2023/09/17 05:32:48;;;;;;;1.85;1.10;;;22.20;89.10;;;;;;6301247;22;20205;-81
2023/09/17 05:35:16;;;;;;;0.93;0.82;;;22.20;88.80;;;;;;6302073;22;20177;-82
2023/09/17 05:37:45;;;;;;;1.27;1.08;;;22.20;88.70;;;;;;6301741;22;20577;-82
2023/09/17 05:40:15;;;;;;;0.65;0.57;;;22.20;88.60;;;;;;6302660;22;20253;-82
2023/09/17 05:42:44;;;;;;;0.77;0.77;;;22.30;88.60;;;;;;6302188;22;20173;-82
2023/09/17 05:45:13;;;;;;;1.20;1.10;;;22.30;88.40;;;;;;6302969;22;20197;-82
2023/09/17 05:47:41;;;;;;;1.13;1.00;;;22.30;88.30;;;;;;6304852;22;20244;-82
2023/09/17 05:50:11;;;;;;;1.65;1.05;;;22.30;88.20;;;;;;6302690;22;20176;-83
2023/09/17 05:52:40;;;;;;;1.50;1.25;;;22.40;88.20;;;;;;6302694;22;20201;-83
2023/09/17 05:55:09;;;;;;;7.55;2.08;;;22.50;88.20;;;;;;6303841;22;20165;-82
2023/09/17 05:57:39;;;;;;;8.60;1.15;;;22.40;87.80;;;;;;6304307;22;20234;-83
2023/09/17 06:00:09;;;;;;;1.55;0.93;;;22.50;87.70;;;;;;6303944;22;20208;-83
2023/09/17 06:02:38;;;;;;;1.80;1.15;;;22.50;87.40;;;;;;6302019;22;20208;-83
2023/09/17 06:05:07;;;;;;;1.17;1.08;;;22.60;88.30;;;;;;6303666;22;20175;-81
2023/09/17 06:07:36;;;;;;;1.98;1.48;;;22.70;87.40;;;;;;6305097;22;20189;-83
2023/09/17 06:10:05;;;;;;;0.65;0.65;;;22.70;87.20;;;;;;6303064;22;20169;-83
2023/09/17 06:12:34;;;;;;;2.15;0.50;;;22.70;87.10;;;;;;6304467;22;20193;-82
2023/09/17 06:15:05;;;;;;;0.82;0.70;;;22.90;87.20;;;;;;6303221;22;20176;-81
2023/09/17 06:17:34;;;;;;;0.60;0.60;;;22.90;87.10;;;;;;6305516;22;20644;-82
2023/09/17 06:20:02;;;;;;;1.55;0.90;;;23.00;87.10;;;;;;6302833;22;20173;-83
2023/09/17 06:22:31;;;;;;;0.85;0.70;;;23.00;87.00;;;;;;6302371;22;20172;-82
2023/09/17 06:25:00;;;;;;;1.73;0.95;;;23.10;86.60;;;;;;6300455;22;20173;-82
2023/09/17 06:27:29;;;;;;;1.02;0.93;;;23.10;86.00;;;;;;6301534;22;20179;-82
2023/09/17 06:29:59;;;;;;;0.57;0.57;;;23.10;85.90;;;;;;6301752;22;20642;-82
2023/09/17 06:32:29;;;;;;;3.50;1.63;;;23.20;85.90;;;;;;6303988;22;20193;-80
2023/09/17 06:34:58;;;;;;;1.88;1.65;;;23.20;85.70;;;;;;6298779;22;20520;-82
2023/09/17 06:37:26;;;;;;;2.28;1.40;;;23.30;85.50;;;;;;6303651;22;20169;-82
2023/09/17 06:39:55;;;;;;;1.25;0.98;;;23.30;85.20;;;;;;6304148;22;20524;-83
2023/09/17 06:42:24;;;;;;;1.42;1.20;;;23.40;85.00;;;;;;6304910;22;20252;-81
2023/09/17 06:44:52;;;;;;;1.17;0.55;;;23.50;85.20;;;;;;6300850;22;20172;-83
2023/09/17 06:47:22;;;;;;;4.47;1.10;;;23.60;85.10;;;;;;6304203;22;20161;-82
2023/09/17 06:49:52;;;;;;;1.40;0.85;;;23.60;84.90;;;;;;6302690;22;20204;-84
2023/09/17 06:52:23;;;;;;;1.05;0.95;;;23.70;84.80;;;;;;6303616;22;20189;-83
2023/09/17 06:54:54;;;;;;;1.05;0.95;;;23.70;84.60;;;;;;6302088;22;20157;-84
2023/09/17 06:57:22;;;;;;;0.82;0.80;;;23.70;84.60;;;;;;6306066;22;20172;-84
2023/09/17 06:59:51;;;;;;;0.75;0.68;;;23.80;84.60;;;;;;6303485;22;20161;-83
2023/09/17 07:02:19;;;;;;;1.38;1.27;;;23.90;84.70;;;;;;6306487;22;20173;-86
2023/09/17 07:04:48;;;;;;;1.25;1.15;;;24.00;84.40;;;;;;6301681;22;20636;-81
2023/09/17 07:07:18;;;;;;;1.10;0.90;;;24.00;84.20;;;;;;6304422;22;20169;-83
2023/09/17 07:09:46;;;;;;;1.15;0.70;;;24.00;84.10;;;;;;6302870;22;20627;-84
2023/09/17 07:12:16;;;;;;;0.50;0.50;;;24.10;84.00;;;;;;6305070;22;20224;-84
2023/09/17 07:14:45;;;;;;;2.55;1.42;;;24.10;84.00;;;;;;6303680;22;20618;-83
2023/09/17 07:17:13;;;;;;;1.40;1.00;;;24.20;83.90;;;;;;6305495;22;20165;-84
2023/09/17 07:19:44;;;;;;;0.82;0.80;;;24.30;83.70;;;;;;6301930;22;20900;-83
2023/09/17 07:22:14;;;;;;;2.35;1.05;;;24.30;83.30;;;;;;6305127;22;20165;-83
2023/09/17 07:24:45;;;;;;;1.05;0.88;;;24.40;82.90;;;;;;6304744;22;20489;-84
2023/09/17 07:27:15;;;;;;;0.98;0.80;;;24.40;82.80;;;;;;6305797;22;20157;-85
2023/09/17 07:29:45;;;;;;;1.42;0.98;;;24.50;82.40;;;;;;6302327;22;20173;-84
2023/09/17 07:32:14;;;;;;;1.17;1.05;;;24.60;82.00;;;;;;6304610;22;20185;-83
2023/09/17 07:34:42;;;;;;;4.25;1.25;;;24.60;82.00;;;;;;6302318;22;20611;-85
2023/09/17 07:37:11;;;;;;;0.63;0.63;;;24.70;81.70;;;;;;6305631;22;20161;-84
2023/09/17 07:39:40;;;;;;;1.25;0.80;;;24.80;81.20;;;;;;6304791;22;20661;-83
2023/09/17 07:42:10;;;;;;;1.60;1.00;;;24.80;80.60;;;;;;6306179;22;20157;-84
2023/09/17 07:44:38;;;;;;;1.63;1.33;;;24.80;80.70;;;;;;6305372;22;20160;-83
2023/09/17 07:47:09;;;;;;;1.30;0.80;;;24.90;80.20;;;;;;6304816;22;20172;-83
2023/09/17 07:49:37;;;;;;;3.47;1.92;;;24.90;79.80;;;;;;6305032;22;20249;-82
2023/09/17 07:52:06;;;;;;;0.38;0.38;;;25.00;80.00;;;;;;6305877;22;20189;-83
2023/09/17 07:54:39;;;;;;;0.43;0.43;;;25.00;80.10;;;;;;6304822;22;20165;-83
2023/09/17 07:57:11;;;;;;;1.73;1.08;;;25.10;79.40;;;;;;6305657;22;20629;-85
2023/09/17 07:59:39;;;;;;;14.52;1.30;;;25.10;79.50;;;;;;6304665;22;20158;-82
2023/09/17 08:02:09;;;;;;;2.03;1.15;;;25.20;79.80;;;;;;6306112;22;20208;-84
2023/09/17 08:04:38;;;;;;;1.23;0.90;;;25.20;79.00;;;;;;6303097;22;20200;-85
2023/09/17 08:07:06;;;;;;;2.10;0.98;;;25.30;79.20;;;;;;6305985;22;20170;-84
2023/09/17 08:09:35;;;;;;;1.15;0.90;;;25.30;79.10;;;;;;6303474;22;20172;-84
2023/09/17 08:12:04;;;;;;;0.95;0.57;;;25.40;78.80;;;;;;6305187;22;20495;-83
2023/09/17 08:14:35;;;;;;;2.15;0.90;;;25.40;78.60;;;;;;6304826;22;20245;-84
2023/09/17 08:17:04;;;;;;;0.95;0.77;;;25.50;78.10;;;;;;6305820;22;20154;-85
2023/09/17 08:19:33;;;;;;;0.57;0.57;;;25.50;78.00;;;;;;6305442;22;20165;-84
2023/09/17 08:22:02;;;;;;;0.57;0.57;;;25.60;78.20;;;;;;6304241;22;20230;-82
2023/09/17 08:24:30;;;;;;;1.65;0.93;;;25.60;77.90;;;;;;6303450;22;20909;-85
2023/09/17 08:26:58;;;;;;;2.28;0.82;;;25.60;78.00;;;;;;6300431;22;20161;-82
2023/09/17 08:29:28;;;;;;;0.70;0.50;;;25.60;77.90;;;;;;6303038;22;20177;-84
2023/09/17 08:31:58;;;;;;;1.80;0.95;;;25.70;77.70;;;;;;6276843;22;20166;-82
2023/09/17 08:34:26;;;;;;;1.48;1.17;;;25.70;77.60;;;;;;6301181;22;20185;-82
2023/09/17 08:36:55;;;;;;;0.98;0.88;;;25.70;77.40;;;;;;6302766;22;20252;-83
2023/09/17 08:39:25;;;;;;;1.23;0.75;;;25.80;76.90;;;;;;6305178;22;20165;-82
2023/09/17 08:41:54;;;;;;;1.33;1.02;;;25.80;77.00;;;;;;6304977;22;20171;-82
2023/09/17 08:44:23;;;;;;;2.35;0.90;;;25.80;76.90;;;;;;6303770;22;20234;-83
2023/09/17 08:46:53;;;;;;;1.70;0.73;;;25.90;76.00;;;;;;6304033;22;20606;-83
2023/09/17 08:49:23;;;;;;;0.75;0.75;;;26.00;75.80;;;;;;6305370;22;20658;-81
2023/09/17 08:51:53;;;;;;;1.25;0.95;;;26.00;75.70;;;;;;6307054;22;20173;-83
2023/09/17 08:54:33;;;;;;;0.95;0.80;;;26.00;75.20;;;;;;6312998;22;20189;-86
2023/09/17 08:57:03;;;;;;;3.72;1.63;;;26.00;74.10;;;;;;6325286;22;20169;-83
2023/09/17 08:59:38;;;;;;;1.25;1.10;;;26.00;74.80;;;;;;6331842;22;20173;-84
2023/09/17 09:02:16;;;;;;;3.15;0.55;;;26.10;74.80;;;;;;6331808;22;20144;-83
2023/09/17 09:04:50;;;;;;;1.02;0.93;;;26.10;74.90;;;;;;6323724;22;20157;-81
2023/09/17 09:07:22;;;;;;;1.98;1.27;;;26.20;75.10;;;;;;6323581;22;20187;-84
2023/09/17 09:09:52;;;;;;;0.43;0.43;;;26.20;74.80;;;;;;6310698;22;20244;-83
2023/09/17 09:12:21;;;;;;;1.58;1.05;;;26.30;74.40;;;;;;6307507;22;20682;-80
2023/09/17 09:14:50;;;;;;;2.72;1.30;;;26.30;74.70;;;;;;6306977;22;20192;-82
2023/09/17 09:17:18;;;;;;;1.90;1.48;;;26.40;73.40;;;;;;6309955;22;20169;-84
2023/09/17 09:19:49;;;;;;;2.10;1.25;;;26.40;73.50;;;;;;6305228;22;20208;-81
2023/09/17 09:22:19;;;;;;;6.05;1.88;;;26.40;73.50;;;;;;6306358;22;20177;-82
2023/09/17 09:24:48;;;;;;;1.63;1.05;;;26.50;73.50;;;;;;6303131;22;20717;-82
2023/09/17 09:27:17;;;;;;;5.10;2.13;;;26.60;72.90;;;;;;6305264;22;20320;-84
2023/09/17 09:29:46;;;;;;;0.65;0.65;;;26.60;72.40;;;;;;6304138;22;20338;-84
2023/09/17 09:32:14;;;;;;;0.95;0.70;;;26.60;72.50;;;;;;6305858;22;20170;-82
2023/09/17 09:34:44;;;;;;;1.75;1.08;;;26.70;72.70;;;;;;6303084;22;20200;-83
2023/09/17 09:37:14;;;;;;;2.10;1.00;;;26.70;72.40;;;;;;6304417;22;20169;-84
2023/09/17 09:39:44;;;;;;;0.30;0.30;;;26.70;72.40;;;;;;6303076;22;20192;-84
2023/09/17 09:42:13;;;;;;;2.00;0.47;;;26.80;72.50;;;;;;6301483;22;20177;-83
2023/09/17 09:44:42;;;;;;;0.98;0.55;;;26.80;72.10;;;;;;6302110;22;20674;-82
2023/09/17 09:47:10;;;;;;;0.40;0.40;;;27.00;72.40;;;;;;6304840;22;20184;-83
2023/09/17 09:49:43;;;;;;;0.47;0.47;;;27.00;72.10;;;;;;6304329;22;20165;-82
2023/09/17 09:52:15;;;;;;;0.77;0.57;;;27.00;71.00;;;;;;6304821;22;20169;-83
2023/09/17 09:54:45;;;;;;;0.75;0.70;;;27.10;71.10;;;;;;6303508;22;20189;-86
2023/09/17 09:57:15;;;;;;;1.95;1.30;;;27.00;71.00;;;;;;6306346;22;20169;-86
2023/09/17 09:59:46;;;;;;;1.83;1.30;;;27.00;70.20;;;;;;6302169;22;20240;-83
2023/09/17 10:02:20;;;;;;;1.23;1.13;;;26.90;70.00;;;;;;6306306;22;20159;-83
2023/09/17 10:04:49;;;;;;;3.60;0.85;;;26.80;70.20;;;;;;6304124;22;20158;-85
2023/09/17 10:07:19;;;;;;;2.17;0.93;;;26.80;70.50;;;;;;6306397;22;20173;-84
2023/09/17 10:09:48;;;;;;;0.50;0.50;;;26.80;70.60;;;;;;6302989;22;20196;-84
2023/09/17 10:12:18;;;;;;;1.58;1.15;;;26.80;70.50;;;;;;6280102;22;20180;-84
2023/09/17 10:14:47;;;;;;;1.25;0.60;;;26.90;70.50;;;;;;6304705;22;20251;-84
2023/09/17 10:17:18;;;;;;;0.70;0.50;;;26.90;70.00;;;;;;6306779;22;20168;-85
2023/09/17 10:19:48;;;;;;;1.00;0.73;;;26.90;70.30;;;;;;6304005;22;20621;-83
2023/09/17 10:22:18;;;;;;;0.85;0.55;;;27.00;69.90;;;;;;6306437;22;20161;-83
2023/09/17 10:24:49;;;;;;;1.30;0.90;;;27.00;68.60;;;;;;6304080;22;20165;-84
2023/09/17 10:27:18;;;;;;;0.70;0.63;;;27.00;68.80;;;;;;6279369;22;20158;-83
2023/09/17 10:29:50;;;;;;;0.88;0.88;;;27.00;68.30;;;;;;6277542;22;20244;-83
2023/09/17 10:32:21;;;;;;;0.80;0.50;;;27.10;68.20;;;;;;6304433;22;20203;-82
2023/09/17 10:34:53;;;;;;;0.40;0.40;;;27.10;68.30;;;;;;6274388;22;20574;-81
2023/09/17 10:37:22;;;;;;;0.63;0.63;;;27.10;68.60;;;;;;6305246;22;20181;-83
2023/09/17 10:39:54;;;;;;;1.90;1.13;;;27.10;67.60;;;;;;6305499;22;20192;-84
2023/09/17 10:42:23;;;;;;;2.17;0.75;;;27.10;67.50;;;;;;6306128;22;20198;-84
2023/09/17 10:44:54;;;;;;;0.57;0.52;;;27.10;67.40;;;;;;6278952;22;20179;-83
2023/09/17 10:47:26;;;;;;;1.77;0.77;;;27.10;67.30;;;;;;6305122;22;20227;-83
2023/09/17 10:49:55;;;;;;;1.02;0.70;;;27.10;66.50;;;;;;6301102;22;20169;-84
2023/09/17 10:52:24;;;;;;;2.42;1.88;;;27.10;66.00;;;;;;6304762;22;20204;-82
2023/09/17 10:54:54;;;;;;;1.02;0.75;;;27.20;66.10;;;;;;6302993;22;20197;-83
2023/09/17 10:57:30;;;;;;;0.93;0.50;;;27.20;66.60;;;;;;6303109;22;20169;-82
2023/09/17 11:00:03;;;;;;;1.08;0.65;;;27.30;66.70;;;;;;6304383;22;20150;-82
2023/09/17 11:02:35;;;;;;;0.60;0.57;;;27.30;65.70;;;;;;6305607;22;20187;-83
2023/09/17 11:05:07;;;;;;;0.20;0.20;;;27.30;66.10;;;;;;6304739;22;20215;-83
2023/09/17 11:07:36;;;;;;;1.20;0.95;;;27.30;66.10;;;;;;6304211;22;20168;-83
2023/09/17 11:10:09;;;;;;;0.82;0.60;;;27.40;66.00;;;;;;6301221;22;20799;-82
2023/09/17 11:12:57;;;;;;;1.40;0.75;;;27.40;66.00;;;;;;6302734;22;20467;-82
2023/09/17 11:15:26;;;;;;;0.95;0.70;;;27.40;65.20;;;;;;6296819;22;20189;-82
2023/09/17 11:18:00;;;;;;;1.15;0.90;;;27.50;64.70;;;;;;6303421;22;20167;-82
2023/09/17 11:20:29;;;;;;;1.85;1.05;;;27.60;64.70;;;;;;6303104;22;20204;-83
2023/09/17 11:22:58;;;;;;;1.95;0.40;;;27.60;63.30;;;;;;6304637;22;20216;-83
2023/09/17 11:25:39;;;;;;;0.55;0.55;;;27.70;63.30;;;;;;6304423;22;20212;-83
2023/09/17 11:28:12;;;;;;;0.30;0.30;;;27.80;63.20;;;;;;6302133;22;20196;-83
2023/09/17 11:30:59;;;;;;;0.43;0.43;;;27.90;63.30;;;;;;6303388;22;20236;-84
2023/09/17 11:33:28;;;;;;;1.55;0.65;;;28.00;63.30;;;;;;6305820;22;20652;-84
2023/09/17 11:35:57;;;;;;;2.80;0.98;;;28.00;62.90;;;;;;6303745;22;20302;-83
2023/09/17 11:38:27;;;;;;;1.10;0.60;;;28.00;60.80;;;;;;6303199;22;20169;-81
2023/09/17 11:41:05;;;;;;;2.30;0.30;;;27.90;61.60;;;;;;6303352;22;20193;-82
2023/09/17 11:43:38;;;;;;;1.20;0.60;;;28.00;61.60;;;;;;6305352;22;20162;-82
2023/09/17 11:46:09;;;;;;;1.92;0.93;;;28.00;62.20;;;;;;6303846;22;20169;-84
2023/09/17 11:48:41;;;;;;;0.50;0.50;;;28.00;60.70;;;;;;6304453;22;20153;-85
2023/09/17 11:51:25;;;;;;;1.38;1.00;;;27.90;60.60;;;;;;6304852;22;20203;-86
2023/09/17 11:53:58;;;;;;;2.25;1.20;;;27.90;60.60;;;;;;6304343;22;20184;-83
2023/09/17 11:56:30;;;;;;;0.28;0.28;;;27.90;60.40;;;;;;6303261;22;20161;-83
2023/09/17 11:59:03;;;;;;;1.05;0.68;;;27.90;61.00;;;;;;6303623;22;20161;-84
2023/09/17 12:01:37;;;;;;;0.70;0.60;;;27.90;61.20;;;;;;6303681;22;20154;-82
2023/09/17 12:04:08;;;;;;;0.77;0.77;;;27.90;61.40;;;;;;6304155;22;20510;-82
2023/09/17 12:06:39;;;;;;;1.58;1.15;;;27.90;60.10;;;;;;6304936;22;20154;-84
2023/09/17 12:12:28;;;;;;;1.45;0.63;;;28.00;59.50;;;;;;6302844;22;20209;-84
2023/09/17 12:14:57;;;;;;;1.60;1.02;;;28.00;59.20;;;;;;6307399;22;20188;-84
2023/09/17 12:17:25;;;;;;;1.58;0.73;;;28.00;58.90;;;;;;6306154;22;20169;-83
2023/09/17 12:23:40;;;;;;;1.23;0.47;;;28.10;58.90;;;;;;6279361;22;20169;-83
2023/09/17 12:26:08;;;;;;;0.70;0.65;;;28.20;59.50;;;;;;6307383;22;20169;-83
2023/09/17 12:28:38;;;;;;;0.57;0.52;;;28.20;59.10;;;;;;6306905;22;20674;-83
2023/09/17 12:31:07;;;;;;;0.40;0.40;;;28.30;58.70;;;;;;6305932;22;20479;-84
2023/09/17 12:33:38;;;;;;;0.60;0.50;;;28.20;58.20;;;;;;6307220;22;20165;-82
2023/09/17 12:36:07;;;;;;;1.83;1.08;;;28.30;58.40;;;;;;6306030;22;20703;-84
2023/09/17 12:38:35;;;;;;;0.98;0.88;;;28.30;58.40;;;;;;6306622;22;20610;-83
2023/09/17 12:41:04;;;;;;;1.85;0.73;;;28.30;58.70;;;;;;6306131;22;20189;-83
2023/09/17 12:43:32;;;;;;;1.10;1.00;;;28.30;58.70;;;;;;6307316;22;20169;-82
2023/09/17 12:46:03;;;;;;;1.05;0.70;;;28.30;58.60;;;;;;6305339;22;20677;-85
2023/09/17 12:48:32;;;;;;;1.15;0.45;;;28.30;57.80;;;;;;6307488;22;20156;-84
2023/09/17 12:51:01;;;;;;;1.08;0.90;;;28.30;57.80;;;;;;6304854;22;20169;-85
2023/09/17 12:53:31;;;;;;;1.25;1.15;;;28.30;57.60;;;;;;6306972;22;20165;-85
2023/09/17 12:56:01;;;;;;;1.95;0.98;;;28.40;57.80;;;;;;6306756;22;20512;-85
2023/09/17 12:58:33;;;;;;;0.52;0.40;;;28.30;57.40;;;;;;6306540;22;20169;-85
2023/09/17 13:01:10;;;;;;;1.08;0.63;;;28.40;56.90;;;;;;6304346;22;20161;-85
2023/09/17 13:03:52;;;;;;;0.68;0.68;;;28.40;57.00;;;;;;6306379;22;20164;-86
2023/09/17 13:06:21;;;;;;;2.17;1.08;;;28.50;56.90;;;;;;6305129;22;20534;-84
2023/09/17 13:08:50;;;;;;;0.38;0.38;;;28.50;56.10;;;;;;6305702;22;20252;-83
2023/09/17 13:11:19;;;;;;;0.85;0.73;;;28.50;56.10;;;;;;6306103;22;20252;-85